createdAt,value
2022-11-27T00:01:33.464Z,11.30
2022-11-27T00:04:01.275Z,11.20
2022-11-27T00:06:30.048Z,11.20
2022-11-27T00:08:59.450Z,11.20
2022-11-27T00:11:29.235Z,11.20
2022-11-27T00:13:57.098Z,11.20
2022-11-27T00:16:26.068Z,11.10
2022-11-27T00:18:53.866Z,11.00
2022-11-27T00:21:26.912Z,10.80
2022-11-27T00:23:55.975Z,10.60
2022-11-27T00:26:24.078Z,10.70
2022-11-27T00:28:51.761Z,10.70
2022-11-27T00:31:29.189Z,10.60
2022-11-27T00:34:02.327Z,10.40
2022-11-27T00:36:31.463Z,10.50
2022-11-27T00:38:59.047Z,10.70
2022-11-27T00:41:29.152Z,10.70
2022-11-27T00:43:57.184Z,10.90
2022-11-27T00:46:28.929Z,11.00
2022-11-27T00:49:00.759Z,10.90
2022-11-27T00:51:29.373Z,11.10
2022-11-27T00:53:57.044Z,11.00
2022-11-27T00:56:29.780Z,11.20
2022-11-27T00:58:57.457Z,11.00
2022-11-27T01:01:27.888Z,10.80
2022-11-27T01:03:56.972Z,11.00
2022-11-27T01:06:25.344Z,11.20
2022-11-27T01:11:25.730Z,10.90
2022-11-27T01:13:55.430Z,11.10
2022-11-27T01:16:25.191Z,11.00
2022-11-27T01:18:55.676Z,10.90
2022-11-27T01:21:23.758Z,11.10
2022-11-27T01:23:51.245Z,11.10
2022-11-27T01:26:19.352Z,10.90
2022-11-27T01:31:18.252Z,10.60
2022-11-27T01:33:46.959Z,10.90
2022-11-27T01:36:16.027Z,10.90
2022-11-27T01:38:43.444Z,11.00
2022-11-27T01:41:18.931Z,11.00
2022-11-27T01:43:49.995Z,11.00
2022-11-27T01:46:38.514Z,10.90
2022-11-27T01:54:14.518Z,10.80
2022-11-27T01:56:43.892Z,10.70
2022-11-27T01:59:12.211Z,10.70
2022-11-27T02:01:39.787Z,10.80
2022-11-27T02:11:41.305Z,10.90
2022-11-27T02:14:25.787Z,11.00
2022-11-27T02:17:22.636Z,10.90
2022-11-27T02:22:26.676Z,10.80
2022-11-27T02:25:06.377Z,10.60
2022-11-27T02:28:02.467Z,10.80
2022-11-27T02:43:17.400Z,10.60
2022-11-27T02:45:48.347Z,10.50
2022-11-27T02:48:22.672Z,10.50
2022-11-27T02:50:51.136Z,10.60
2022-11-27T02:53:31.012Z,10.50
2022-11-27T02:56:00.552Z,10.50
2022-11-27T02:58:29.239Z,10.50
2022-11-27T03:00:57.974Z,10.50
2022-11-27T03:03:32.046Z,10.50
2022-11-27T03:06:06.019Z,10.40
2022-11-27T03:08:39.296Z,10.30
2022-11-27T03:11:12.345Z,10.50
2022-11-27T03:13:45.316Z,10.60
2022-11-27T03:16:30.552Z,10.40
2022-11-27T03:19:30.187Z,10.50
2022-11-27T03:21:59.997Z,10.50
2022-11-27T03:24:28.315Z,10.40
2022-11-27T03:27:00.283Z,10.10
2022-11-27T03:32:04.255Z,10.40
2022-11-27T03:42:07.421Z,10.70
2022-11-27T03:45:04.344Z,10.20
2022-11-27T03:48:12.336Z,10.30
2022-11-27T03:51:03.800Z,10.30
2022-11-27T03:54:04.113Z,10.20
2022-11-27T04:04:04.692Z,10.60
2022-11-27T04:06:32.127Z,10.70
2022-11-27T04:08:59.556Z,10.80
2022-11-27T04:11:27.370Z,10.60
2022-11-27T04:13:54.784Z,10.50
2022-11-27T04:16:22.580Z,10.40
2022-11-27T04:18:49.970Z,10.40
2022-11-27T04:21:17.493Z,10.40
2022-11-27T04:23:45.476Z,10.20
2022-11-27T04:26:13.109Z,10.20
2022-11-27T04:28:40.455Z,10.20
2022-11-27T04:31:07.964Z,10.00
2022-11-27T04:33:35.311Z,10.10
2022-11-27T04:36:02.657Z,10.20
2022-11-27T04:38:29.940Z,10.20
2022-11-27T04:40:58.006Z,10.10
2022-11-27T04:43:25.354Z,10.10
2022-11-27T04:45:52.730Z,10.20
2022-11-27T04:48:20.080Z,10.20
2022-11-27T04:50:47.377Z,10.20
2022-11-27T04:53:14.818Z,10.10
2022-11-27T04:55:42.144Z,10.00
2022-11-27T04:58:09.476Z,10.00
2022-11-27T05:00:36.923Z,9.80
2022-11-27T05:03:04.357Z,9.90
2022-11-27T05:05:31.745Z,10.00
2022-11-27T05:07:59.221Z,10.00
2022-11-27T05:10:26.799Z,10.10
2022-11-27T05:12:54.182Z,9.90
2022-11-27T05:15:21.534Z,9.90
2022-11-27T05:17:48.888Z,9.90
2022-11-27T05:20:16.396Z,9.90
2022-11-27T05:22:44.854Z,9.90
2022-11-27T05:25:12.297Z,9.90
2022-11-27T05:27:39.692Z,9.80
2022-11-27T05:30:07.817Z,9.60
2022-11-27T05:32:35.123Z,10.00
2022-11-27T05:35:02.470Z,10.00
2022-11-27T05:37:29.801Z,9.80
2022-11-27T05:39:57.120Z,9.90
2022-11-27T05:42:24.453Z,9.80
2022-11-27T05:44:56.677Z,9.60
2022-11-27T05:47:25.570Z,9.60
2022-11-27T05:49:53.321Z,9.90
2022-11-27T05:52:20.716Z,9.90
2022-11-27T05:54:47.996Z,10.10
2022-11-27T05:57:15.409Z,9.90
2022-11-27T05:59:42.722Z,9.90
2022-11-27T06:02:11.964Z,9.80
2022-11-27T06:04:42.662Z,9.80
2022-11-27T06:07:10.489Z,9.70
2022-11-27T06:09:38.241Z,9.70
2022-11-27T06:12:05.878Z,9.60
2022-11-27T06:14:35.058Z,9.60
2022-11-27T06:17:03.164Z,9.60
2022-11-27T06:19:30.809Z,9.70
2022-11-27T06:21:58.252Z,9.70
2022-11-27T06:24:25.770Z,9.70
2022-11-27T06:26:53.105Z,9.60
2022-11-27T06:29:20.414Z,9.40
2022-11-27T06:31:47.863Z,9.50
2022-11-27T06:34:15.246Z,9.40
2022-11-27T06:36:42.514Z,9.70
2022-11-27T06:39:11.893Z,9.90
2022-11-27T06:41:39.221Z,9.90
2022-11-27T06:44:06.617Z,9.60
2022-11-27T06:46:33.927Z,9.70
2022-11-27T06:49:01.426Z,9.80
2022-11-27T06:51:31.215Z,9.60
2022-11-27T06:54:00.442Z,9.60
2022-11-27T07:01:27.382Z,10.30
2022-11-27T07:03:55.510Z,10.40
2022-11-27T07:06:27.174Z,11.10
2022-11-27T07:08:55.458Z,11.10
2022-11-27T07:11:26.179Z,11.30
2022-11-27T07:13:56.150Z,11.70
2022-11-27T07:16:24.076Z,12.10
2022-11-27T07:18:54.097Z,12.50
2022-11-27T07:21:21.889Z,12.80
2022-11-27T07:23:49.313Z,12.90
2022-11-27T07:26:22.297Z,12.90
2022-11-27T07:28:50.129Z,12.50
2022-11-27T07:31:23.122Z,12.30
2022-11-27T07:33:52.563Z,12.20
2022-11-27T07:36:28.994Z,12.20
2022-11-27T07:38:57.997Z,12.30
2022-11-27T07:41:30.617Z,13.20
2022-11-27T07:44:01.224Z,13.90
2022-11-27T07:46:30.195Z,14.90
2022-11-27T07:48:58.163Z,15.60
2022-11-27T07:51:25.477Z,16.10
2022-11-27T07:53:52.919Z,16.40
2022-11-27T07:56:21.054Z,16.90
2022-11-27T07:58:48.543Z,17.30
2022-11-27T08:01:18.372Z,17.60
2022-11-27T08:03:46.393Z,17.70
2022-11-27T08:06:16.746Z,17.70
2022-11-27T08:08:44.333Z,17.80
2022-11-27T08:11:23.338Z,17.90
2022-11-27T08:13:55.145Z,17.80
2022-11-27T08:16:22.694Z,18.10
2022-11-27T08:18:50.105Z,18.30
2022-11-27T08:21:17.436Z,18.70
2022-11-27T08:23:44.842Z,18.80
2022-11-27T08:26:12.806Z,18.50
2022-11-27T08:28:40.564Z,18.50
2022-11-27T08:31:11.333Z,18.50
2022-11-27T08:33:38.776Z,18.50
2022-11-27T08:36:09.766Z,19.00
2022-11-27T08:38:40.518Z,19.00
2022-11-27T08:41:08.920Z,19.30
2022-11-27T08:43:36.699Z,19.30
2022-11-27T08:46:05.764Z,19.20
2022-11-27T08:48:33.480Z,19.00
2022-11-27T08:51:09.210Z,18.90
2022-11-27T08:53:37.746Z,18.80
2022-11-27T08:56:19.544Z,19.00
2022-11-27T08:58:47.027Z,19.10
2022-11-27T09:01:19.199Z,18.20
2022-11-27T09:03:47.818Z,17.10
2022-11-27T09:06:18.772Z,16.30
2022-11-27T09:08:46.126Z,16.50
2022-11-27T09:11:15.431Z,17.80
2022-11-27T09:13:43.474Z,18.00
2022-11-27T09:16:13.879Z,17.60
2022-11-27T09:18:44.014Z,17.70
2022-11-27T09:21:12.896Z,18.10
2022-11-27T09:23:40.848Z,17.60
2022-11-27T09:26:14.102Z,17.10
2022-11-27T09:28:42.611Z,16.90
2022-11-27T09:31:12.643Z,17.20
2022-11-27T09:33:41.320Z,17.30
2022-11-27T09:36:11.437Z,17.50
2022-11-27T09:38:39.146Z,17.10
2022-11-27T09:41:18.189Z,17.50
2022-11-27T09:43:53.567Z,17.50
2022-11-27T09:46:31.344Z,17.80
2022-11-27T09:49:02.878Z,17.90
2022-11-27T09:51:36.031Z,17.90
2022-11-27T09:54:18.696Z,18.10
2022-11-27T09:56:50.181Z,18.50
2022-11-27T09:59:21.344Z,18.60
2022-11-27T10:01:51.057Z,19.10
2022-11-27T10:04:21.029Z,19.30
2022-11-27T10:07:25.910Z,19.20
2022-11-27T10:10:05.029Z,19.40
2022-11-27T10:12:54.133Z,19.50
2022-11-27T10:15:48.445Z,19.50
2022-11-27T10:18:32.402Z,20.10
2022-11-27T10:21:11.779Z,20.20
2022-11-27T10:24:02.256Z,20.30
2022-11-27T10:26:36.552Z,20.40
2022-11-27T10:29:28.408Z,20.10
2022-11-27T10:32:00.943Z,20.00
2022-11-27T10:34:44.753Z,20.10
2022-11-27T10:37:18.085Z,20.10
2022-11-27T10:39:54.141Z,20.40
2022-11-27T10:42:50.643Z,20.30
2022-11-27T10:45:29.156Z,20.90
2022-11-27T10:47:56.553Z,21.00
2022-11-27T10:50:23.954Z,20.40
2022-11-27T10:52:57.913Z,20.40
2022-11-27T10:55:51.574Z,20.40
2022-11-27T10:58:45.430Z,20.90
2022-11-27T11:01:18.830Z,20.60
2022-11-27T11:03:46.745Z,20.50
2022-11-27T11:06:21.207Z,20.60
2022-11-27T11:09:02.931Z,20.70
2022-11-27T11:11:30.285Z,21.30
2022-11-27T11:13:57.807Z,20.90
2022-11-27T11:16:34.749Z,20.90
2022-11-27T11:19:03.183Z,20.80
2022-11-27T11:21:34.347Z,20.70
2022-11-27T11:24:20.571Z,20.70
2022-11-27T11:26:54.288Z,20.40
2022-11-27T11:29:53.406Z,20.60
2022-11-27T11:32:22.716Z,20.90
2022-11-27T11:35:00.807Z,20.40
2022-11-27T11:37:39.517Z,20.90
2022-11-27T11:40:20.777Z,21.30
2022-11-27T11:43:04.295Z,21.50
2022-11-27T11:45:33.811Z,21.20
2022-11-27T11:48:27.543Z,21.10
2022-11-27T11:51:07.157Z,21.00
2022-11-27T11:53:42.613Z,21.00
2022-11-27T11:56:31.805Z,20.80
2022-11-27T11:59:03.742Z,20.60
2022-11-27T12:01:30.978Z,20.60
2022-11-27T12:04:21.639Z,21.10
2022-11-27T12:07:01.341Z,21.40
2022-11-27T12:09:43.799Z,21.30
2022-11-27T12:12:32.656Z,21.70
2022-11-27T12:15:20.077Z,21.70
2022-11-27T12:18:00.983Z,22.00
2022-11-27T12:20:43.536Z,21.90
2022-11-27T12:23:25.604Z,20.90
2022-11-27T12:25:56.131Z,20.40
2022-11-27T12:28:36.596Z,19.80
2022-11-27T12:31:29.284Z,19.40
2022-11-27T12:34:32.116Z,19.10
2022-11-27T12:37:14.228Z,19.00
2022-11-27T12:40:34.253Z,18.90
2022-11-27T12:43:22.009Z,18.60
2022-11-27T12:46:21.152Z,18.20
2022-11-27T12:48:59.980Z,18.30
2022-11-27T12:51:37.931Z,18.00
2022-11-27T12:54:05.330Z,17.80
2022-11-27T12:56:42.659Z,17.70
2022-11-27T12:59:36.995Z,17.70
2022-11-27T13:02:42.498Z,18.00
2022-11-27T13:05:17.848Z,18.30
2022-11-27T13:08:11.221Z,18.50
2022-11-27T13:10:44.094Z,18.10
2022-11-27T13:13:31.447Z,17.90
2022-11-27T13:16:04.321Z,17.70
2022-11-27T13:18:54.663Z,17.70
2022-11-27T13:21:26.899Z,17.60
2022-11-27T13:23:54.597Z,17.50
2022-11-27T13:26:27.420Z,17.30
2022-11-27T13:29:29.085Z,17.40
2022-11-27T13:32:00.326Z,17.30
2022-11-27T13:34:30.164Z,17.40
2022-11-27T13:37:01.441Z,17.50
2022-11-27T13:39:32.908Z,17.30
2022-11-27T13:42:07.982Z,17.20
2022-11-27T13:44:40.643Z,17.40
2022-11-27T13:47:13.899Z,17.30
2022-11-27T13:49:43.402Z,17.10
2022-11-27T13:52:19.731Z,17.40
2022-11-27T13:54:56.757Z,17.30
2022-11-27T13:57:24.796Z,17.10
2022-11-27T14:00:06.792Z,17.10
2022-11-27T14:02:51.210Z,17.00
2022-11-27T14:05:34.071Z,17.00
2022-11-27T14:08:01.628Z,17.00
2022-11-27T14:10:32.058Z,16.60
2022-11-27T14:13:03.864Z,16.50
2022-11-27T14:15:32.588Z,16.10
2022-11-27T14:18:18.561Z,16.20
2022-11-27T14:20:52.342Z,16.20
2022-11-27T14:23:31.120Z,16.00
2022-11-27T14:26:13.410Z,15.70
2022-11-27T14:28:49.159Z,15.80
2022-11-27T14:31:31.623Z,15.70
2022-11-27T14:34:23.136Z,15.70
2022-11-27T14:36:52.914Z,15.70
2022-11-27T14:39:31.874Z,15.70
2022-11-27T14:42:05.130Z,15.60
2022-11-27T14:44:32.577Z,15.40
2022-11-27T14:47:03.620Z,15.20
2022-11-27T14:49:32.995Z,15.20
2022-11-27T14:52:05.501Z,15.10
2022-11-27T14:54:36.890Z,14.90
2022-11-27T14:57:05.888Z,14.90
2022-11-27T14:59:33.601Z,15.00
2022-11-27T15:02:21.421Z,15.10
2022-11-27T15:05:03.829Z,14.90
2022-11-27T15:07:36.564Z,14.90
2022-11-27T15:10:22.867Z,14.80
2022-11-27T15:12:50.648Z,14.80
2022-11-27T15:15:25.802Z,14.70
2022-11-27T15:18:02.571Z,14.70
2022-11-27T15:20:41.017Z,14.70
2022-11-27T15:23:30.557Z,14.40
2022-11-27T15:26:03.709Z,14.30
2022-11-27T15:28:58.961Z,14.30
2022-11-27T15:31:29.315Z,14.40
2022-11-27T15:33:59.311Z,14.40
2022-11-27T15:36:26.845Z,14.40
2022-11-27T15:39:16.180Z,14.70
2022-11-27T15:42:01.188Z,15.00
2022-11-27T15:44:31.210Z,15.20
2022-11-27T15:47:01.400Z,15.20
2022-11-27T15:49:29.333Z,15.30
2022-11-27T15:51:57.814Z,15.30
2022-11-27T15:54:25.971Z,15.40
2022-11-27T15:56:53.285Z,15.40
2022-11-27T15:59:20.819Z,15.30
2022-11-27T16:01:49.648Z,15.30
2022-11-27T16:04:17.479Z,15.30
2022-11-27T16:06:45.661Z,15.30
2022-11-27T16:09:13.087Z,15.30
2022-11-27T16:11:40.807Z,15.30
2022-11-27T16:14:08.258Z,15.30
2022-11-27T16:16:35.754Z,15.20
2022-11-27T16:19:05.413Z,15.20
2022-11-27T16:21:34.821Z,15.20
2022-11-27T16:24:04.431Z,15.20
2022-11-27T16:26:32.618Z,15.20
2022-11-27T16:29:00.255Z,15.20
2022-11-27T16:31:28.077Z,15.20
2022-11-27T16:33:55.593Z,15.10
2022-11-27T16:36:25.535Z,15.10
2022-11-27T16:38:57.456Z,15.10
2022-11-27T16:41:26.078Z,15.10
2022-11-27T16:43:56.750Z,15.10
2022-11-27T16:46:28.153Z,15.00
2022-11-27T16:48:57.631Z,15.00
2022-11-27T16:51:28.607Z,15.00
2022-11-27T16:53:57.881Z,15.00
2022-11-27T16:56:27.957Z,15.00
2022-11-27T16:59:02.360Z,15.00
2022-11-27T17:01:35.258Z,15.00
2022-11-27T17:04:04.795Z,15.10
2022-11-27T17:06:33.612Z,15.00
2022-11-27T17:09:02.395Z,14.90
2022-11-27T17:11:35.842Z,14.90
2022-11-27T17:14:08.795Z,15.00
2022-11-27T17:16:41.270Z,14.90
2022-11-27T17:19:15.602Z,14.90
2022-11-27T17:21:44.818Z,14.80
2022-11-27T17:24:15.961Z,14.80
2022-11-27T17:26:48.315Z,14.80
2022-11-27T17:29:18.775Z,14.80
2022-11-27T17:31:46.199Z,14.60
2022-11-27T17:34:15.715Z,14.60
2022-11-27T17:36:45.436Z,14.60
2022-11-27T17:39:15.181Z,14.60
2022-11-27T17:41:46.775Z,14.50
2022-11-27T17:44:14.311Z,14.50
2022-11-27T17:46:41.914Z,14.50
2022-11-27T17:49:10.583Z,14.40
2022-11-27T17:51:38.898Z,14.40
2022-11-27T17:54:06.952Z,14.40
2022-11-27T17:56:34.854Z,14.40
2022-11-27T17:59:03.156Z,14.30
2022-11-27T18:01:31.316Z,14.40
2022-11-27T18:04:01.114Z,14.30
2022-11-27T18:06:30.948Z,14.30
2022-11-27T18:08:59.305Z,14.30
2022-11-27T18:11:28.456Z,14.20
2022-11-27T18:13:58.747Z,14.20
2022-11-27T18:16:32.687Z,14.10
2022-11-27T18:19:04.489Z,14.10
2022-11-27T18:21:31.849Z,14.10
2022-11-27T18:29:36.073Z,14.00
2022-11-27T18:32:03.589Z,14.00
2022-11-27T18:34:31.279Z,14.00
2022-11-27T18:36:59.681Z,13.90
2022-11-27T18:39:28.183Z,13.90
2022-11-27T18:41:55.635Z,13.90
2022-11-27T18:44:23.376Z,13.90
2022-11-27T18:46:50.814Z,13.80
2022-11-27T18:49:19.050Z,13.90
2022-11-27T18:51:49.143Z,13.80
2022-11-27T18:54:16.677Z,13.80
2022-11-27T18:56:44.006Z,13.80
2022-11-27T18:59:11.654Z,13.80
2022-11-27T19:01:42.339Z,13.70
2022-11-27T19:04:11.827Z,13.80
2022-11-27T19:06:39.822Z,13.70
2022-11-27T19:09:07.632Z,13.70
2022-11-27T19:11:35.444Z,13.70
2022-11-27T19:14:04.777Z,13.60
2022-11-27T19:16:35.210Z,13.60
2022-11-27T19:19:05.351Z,13.60
2022-11-27T19:21:35.054Z,13.50
2022-11-27T19:24:05.352Z,13.50
2022-11-27T19:26:35.661Z,13.50
2022-11-27T19:29:07.879Z,13.50
2022-11-27T19:31:38.109Z,13.50
2022-11-27T19:34:06.017Z,13.50
2022-11-27T19:36:35.150Z,13.50
2022-11-27T19:39:05.498Z,13.50
2022-11-27T19:41:32.707Z,13.50
2022-11-27T19:44:04.695Z,13.40
2022-11-27T19:46:33.665Z,13.40
2022-11-27T19:49:07.955Z,13.30
2022-11-27T19:51:36.143Z,13.20
2022-11-27T19:54:08.302Z,13.20
2022-11-27T19:56:40.086Z,13.20
2022-11-27T19:59:08.497Z,13.20
2022-11-27T20:01:37.569Z,13.20
2022-11-27T20:04:05.195Z,13.20
2022-11-27T20:06:32.437Z,13.20
2022-11-27T20:09:01.164Z,13.20
2022-11-27T20:11:34.239Z,13.10
2022-11-27T20:14:04.062Z,13.10
2022-11-27T20:16:33.589Z,13.00
2022-11-27T20:19:02.083Z,13.10
2022-11-27T20:21:29.265Z,13.10
2022-11-27T20:23:57.855Z,13.10
2022-11-27T20:26:26.420Z,13.10
2022-11-27T20:28:54.165Z,13.10
2022-11-27T20:31:24.217Z,13.10
2022-11-27T20:33:52.411Z,13.10
2022-11-27T20:36:20.148Z,13.10
2022-11-27T20:38:48.784Z,13.00
2022-11-27T20:41:17.364Z,13.00
2022-11-27T20:43:44.628Z,13.00
2022-11-27T20:46:13.463Z,12.90
2022-11-27T20:48:40.917Z,12.90
2022-11-27T20:51:13.699Z,12.90
2022-11-27T20:53:41.550Z,13.00
2022-11-27T20:56:09.905Z,13.00
2022-11-27T20:58:38.205Z,12.90
2022-11-27T21:01:18.042Z,12.90
2022-11-27T21:03:46.211Z,12.90
2022-11-27T21:06:14.228Z,12.90
2022-11-27T21:08:41.549Z,12.80
2022-11-27T21:11:15.933Z,12.80
2022-11-27T21:13:44.781Z,12.90
2022-11-27T21:16:13.208Z,12.90
2022-11-27T21:18:40.905Z,12.80
2022-11-27T21:21:09.117Z,12.80
2022-11-27T21:23:36.272Z,12.80
2022-11-27T21:26:04.140Z,12.80
2022-11-27T21:28:31.805Z,12.70
2022-11-27T21:31:09.867Z,12.70
2022-11-27T21:33:37.198Z,12.70
2022-11-27T21:36:04.849Z,12.70
2022-11-27T21:38:33.623Z,12.70
2022-11-27T21:41:01.343Z,12.60
2022-11-27T21:43:28.657Z,12.60
2022-11-27T21:45:55.996Z,12.60
2022-11-27T21:48:23.479Z,12.60
2022-11-27T21:50:50.882Z,12.60
2022-11-27T21:53:36.324Z,12.50
2022-11-27T21:56:04.199Z,12.50
2022-11-27T21:58:34.254Z,12.50
2022-11-27T22:01:02.047Z,12.50
2022-11-27T22:03:29.255Z,12.40
2022-11-27T22:05:59.809Z,12.50
2022-11-27T22:08:27.134Z,12.50
2022-11-27T22:10:54.255Z,12.60
2022-11-27T22:13:21.699Z,12.50
2022-11-27T22:15:49.112Z,12.40
2022-11-27T22:18:16.715Z,12.50
2022-11-27T22:20:43.886Z,12.50
2022-11-27T22:23:11.367Z,12.40
2022-11-27T22:25:38.577Z,12.40
2022-11-27T22:28:06.022Z,12.60
2022-11-27T22:30:33.215Z,12.50
2022-11-27T22:33:00.473Z,12.50
2022-11-27T22:35:28.130Z,12.60
2022-11-27T22:37:55.535Z,12.50
2022-11-27T22:40:23.493Z,12.60
2022-11-27T22:42:50.745Z,12.50
2022-11-27T22:45:17.978Z,12.50
2022-11-27T22:47:45.110Z,12.40
2022-11-27T22:50:12.355Z,12.40
2022-11-27T22:52:39.495Z,12.30
2022-11-27T22:55:06.844Z,12.40
2022-11-27T22:57:34.264Z,12.30
2022-11-27T23:00:01.441Z,12.30
2022-11-27T23:02:30.271Z,12.30
2022-11-27T23:04:57.440Z,12.30
2022-11-27T23:07:25.428Z,12.20
2022-11-27T23:09:52.964Z,12.30
2022-11-27T23:12:20.066Z,12.30
2022-11-27T23:14:47.284Z,12.30
2022-11-27T23:17:14.555Z,12.30
2022-11-27T23:19:41.925Z,12.30
2022-11-27T23:22:09.057Z,12.30
2022-11-27T23:24:36.266Z,12.30
2022-11-27T23:27:03.472Z,12.30
2022-11-27T23:29:30.666Z,12.20
2022-11-27T23:31:57.845Z,12.20
2022-11-27T23:34:25.014Z,12.20
2022-11-27T23:36:52.182Z,12.20
2022-11-27T23:39:19.337Z,12.20
2022-11-27T23:41:49.143Z,12.20
2022-11-27T23:44:16.439Z,12.10
2022-11-27T23:46:43.545Z,12.10
2022-11-27T23:49:10.615Z,12.10
2022-11-27T23:51:37.843Z,12.10
2022-11-27T23:54:09.333Z,12.00
2022-11-27T23:56:37.625Z,12.10
2022-11-27T23:59:05.495Z,12.00
